sensor_id;sensor_type;location;lat;lon;timestamp;P1;durP1;ratioP1;P2;durP2;ratioP2
37909;SDS011;23741;49.446;8.754;2024-03-08T00:01:59;17.88;;;12.02;;
37909;SDS011;23741;49.446;8.754;2024-03-08T00:04:01;15.40;;;11.68;;
37909;SDS011;23741;49.446;8.754;2024-03-08T00:06:03;17.38;;;12.38;;
37909;SDS011;23741;49.446;8.754;2024-03-08T00:08:06;17.25;;;12.18;;
37909;SDS011;23741;49.446;8.754;2024-03-08T00:10:11;16.58;;;11.48;;
37909;SDS011;23741;49.446;8.754;2024-03-08T00:12:16;17.13;;;13.23;;
37909;SDS011;23741;49.446;8.754;2024-03-08T00:14:18;15.60;;;12.18;;
37909;SDS011;23741;49.446;8.754;2024-03-08T00:16:20;16.27;;;12.17;;
37909;SDS011;23741;49.446;8.754;2024-03-08T00:18:22;16.20;;;11.32;;
37909;SDS011;23741;49.446;8.754;2024-03-08T00:20:24;16.95;;;11.40;;
37909;SDS011;23741;49.446;8.754;2024-03-08T00:22:25;15.57;;;9.25;;
37909;SDS011;23741;49.446;8.754;2024-03-08T00:24:28;15.85;;;11.20;;
37909;SDS011;23741;49.446;8.754;2024-03-08T00:26:30;15.63;;;12.07;;
37909;SDS011;23741;49.446;8.754;2024-03-08T00:28:32;15.65;;;11.90;;
37909;SDS011;23741;49.446;8.754;2024-03-08T00:30:35;18.52;;;11.52;;
37909;SDS011;23741;49.446;8.754;2024-03-08T00:32:37;16.93;;;12.83;;
37909;SDS011;23741;49.446;8.754;2024-03-08T00:34:39;17.83;;;11.00;;
37909;SDS011;23741;49.446;8.754;2024-03-08T00:36:41;16.03;;;11.30;;
37909;SDS011;23741;49.446;8.754;2024-03-08T00:38:43;13.80;;;8.63;;
37909;SDS011;23741;49.446;8.754;2024-03-08T00:40:45;16.58;;;12.48;;
37909;SDS011;23741;49.446;8.754;2024-03-08T00:42:47;17.58;;;12.43;;
37909;SDS011;23741;49.446;8.754;2024-03-08T00:44:49;13.02;;;8.85;;
37909;SDS011;23741;49.446;8.754;2024-03-08T00:46:53;15.93;;;11.75;;
37909;SDS011;23741;49.446;8.754;2024-03-08T00:48:56;17.08;;;12.45;;
37909;SDS011;23741;49.446;8.754;2024-03-08T00:50:58;17.95;;;12.45;;
37909;SDS011;23741;49.446;8.754;2024-03-08T00:53:00;16.25;;;11.13;;
37909;SDS011;23741;49.446;8.754;2024-03-08T00:55:01;15.67;;;11.37;;
37909;SDS011;23741;49.446;8.754;2024-03-08T00:57:04;14.32;;;11.18;;
37909;SDS011;23741;49.446;8.754;2024-03-08T00:59:07;16.63;;;11.57;;
37909;SDS011;23741;49.446;8.754;2024-03-08T01:01:09;17.48;;;11.48;;
37909;SDS011;23741;49.446;8.754;2024-03-08T01:03:11;17.75;;;11.80;;
37909;SDS011;23741;49.446;8.754;2024-03-08T01:05:13;18.07;;;11.77;;
37909;SDS011;23741;49.446;8.754;2024-03-08T01:07:15;16.83;;;12.63;;
37909;SDS011;23741;49.446;8.754;2024-03-08T01:09:17;15.00;;;11.27;;
37909;SDS011;23741;49.446;8.754;2024-03-08T01:11:18;19.03;;;11.83;;
37909;SDS011;23741;49.446;8.754;2024-03-08T01:13:20;17.13;;;12.60;;
37909;SDS011;23741;49.446;8.754;2024-03-08T01:15:23;15.03;;;11.40;;
37909;SDS011;23741;49.446;8.754;2024-03-08T01:17:25;17.45;;;12.50;;
37909;SDS011;23741;49.446;8.754;2024-03-08T01:19:27;18.45;;;12.48;;
37909;SDS011;23741;49.446;8.754;2024-03-08T01:21:29;14.50;;;11.18;;
37909;SDS011;23741;49.446;8.754;2024-03-08T01:23:31;15.95;;;11.52;;
37909;SDS011;23741;49.446;8.754;2024-03-08T01:25:33;19.27;;;12.30;;
37909;SDS011;23741;49.446;8.754;2024-03-08T01:27:35;18.42;;;12.07;;
37909;SDS011;23741;49.446;8.754;2024-03-08T01:29:38;17.05;;;12.57;;
37909;SDS011;23741;49.446;8.754;2024-03-08T01:31:40;16.08;;;11.80;;
37909;SDS011;23741;49.446;8.754;2024-03-08T01:33:41;16.45;;;12.02;;
37909;SDS011;23741;49.446;8.754;2024-03-08T01:35:44;16.05;;;11.90;;
37909;SDS011;23741;49.446;8.754;2024-03-08T01:37:45;19.53;;;12.37;;
37909;SDS011;23741;49.446;8.754;2024-03-08T01:39:47;16.73;;;12.07;;
37909;SDS011;23741;49.446;8.754;2024-03-08T01:41:49;18.40;;;12.40;;
37909;SDS011;23741;49.446;8.754;2024-03-08T01:43:51;17.08;;;12.07;;
37909;SDS011;23741;49.446;8.754;2024-03-08T01:45:54;18.88;;;12.27;;
37909;SDS011;23741;49.446;8.754;2024-03-08T01:47:58;17.63;;;12.23;;
37909;SDS011;23741;49.446;8.754;2024-03-08T01:50:00;17.17;;;12.70;;
37909;SDS011;23741;49.446;8.754;2024-03-08T01:52:07;20.63;;;12.98;;
37909;SDS011;23741;49.446;8.754;2024-03-08T01:54:09;14.43;;;10.50;;
37909;SDS011;23741;49.446;8.754;2024-03-08T01:56:12;15.52;;;11.48;;
37909;SDS011;23741;49.446;8.754;2024-03-08T01:58:15;17.55;;;12.63;;
37909;SDS011;23741;49.446;8.754;2024-03-08T02:00:18;20.08;;;12.27;;
37909;SDS011;23741;49.446;8.754;2024-03-08T02:02:22;14.77;;;11.07;;
37909;SDS011;23741;49.446;8.754;2024-03-08T02:04:24;16.27;;;11.55;;
37909;SDS011;23741;49.446;8.754;2024-03-08T02:06:26;15.00;;;11.27;;
37909;SDS011;23741;49.446;8.754;2024-03-08T02:08:27;19.30;;;12.93;;
37909;SDS011;23741;49.446;8.754;2024-03-08T02:12:33;16.33;;;10.63;;
37909;SDS011;23741;49.446;8.754;2024-03-08T02:14:35;18.65;;;11.95;;
37909;SDS011;23741;49.446;8.754;2024-03-08T02:16:37;19.45;;;12.48;;
37909;SDS011;23741;49.446;8.754;2024-03-08T02:18:40;17.95;;;11.70;;
37909;SDS011;23741;49.446;8.754;2024-03-08T02:20:42;20.23;;;12.38;;
37909;SDS011;23741;49.446;8.754;2024-03-08T02:22:44;16.92;;;12.13;;
37909;SDS011;23741;49.446;8.754;2024-03-08T02:24:47;16.13;;;12.40;;
37909;SDS011;23741;49.446;8.754;2024-03-08T02:26:49;16.10;;;11.55;;
37909;SDS011;23741;49.446;8.754;2024-03-08T02:28:51;17.53;;;12.40;;
37909;SDS011;23741;49.446;8.754;2024-03-08T02:30:53;17.10;;;11.98;;
37909;SDS011;23741;49.446;8.754;2024-03-08T02:32:57;13.82;;;10.65;;
37909;SDS011;23741;49.446;8.754;2024-03-08T02:34:59;17.27;;;12.15;;
37909;SDS011;23741;49.446;8.754;2024-03-08T02:37:01;17.92;;;11.85;;
37909;SDS011;23741;49.446;8.754;2024-03-08T02:39:04;17.20;;;11.32;;
37909;SDS011;23741;49.446;8.754;2024-03-08T02:41:07;17.70;;;11.80;;
37909;SDS011;23741;49.446;8.754;2024-03-08T02:43:10;17.15;;;11.98;;
37909;SDS011;23741;49.446;8.754;2024-03-08T02:47:15;15.90;;;11.30;;
37909;SDS011;23741;49.446;8.754;2024-03-08T02:49:16;16.80;;;11.60;;
37909;SDS011;23741;49.446;8.754;2024-03-08T02:51:18;17.03;;;11.77;;
37909;SDS011;23741;49.446;8.754;2024-03-08T02:53:21;17.45;;;11.88;;
37909;SDS011;23741;49.446;8.754;2024-03-08T02:55:24;17.65;;;11.73;;
37909;SDS011;23741;49.446;8.754;2024-03-08T02:57:27;16.58;;;11.40;;
37909;SDS011;23741;49.446;8.754;2024-03-08T02:59:29;17.17;;;11.87;;
37909;SDS011;23741;49.446;8.754;2024-03-08T03:01:31;15.50;;;11.13;;
37909;SDS011;23741;49.446;8.754;2024-03-08T03:03:33;18.20;;;11.77;;
37909;SDS011;23741;49.446;8.754;2024-03-08T03:05:35;18.75;;;12.32;;
37909;SDS011;23741;49.446;8.754;2024-03-08T03:07:37;17.55;;;12.00;;
37909;SDS011;23741;49.446;8.754;2024-03-08T03:09:39;17.15;;;12.27;;
37909;SDS011;23741;49.446;8.754;2024-03-08T03:11:44;16.23;;;11.52;;
37909;SDS011;23741;49.446;8.754;2024-03-08T03:13:46;17.15;;;12.48;;
37909;SDS011;23741;49.446;8.754;2024-03-08T03:15:50;17.60;;;11.55;;
37909;SDS011;23741;49.446;8.754;2024-03-08T03:17:53;15.52;;;10.60;;
37909;SDS011;23741;49.446;8.754;2024-03-08T03:19:55;15.98;;;11.40;;
37909;SDS011;23741;49.446;8.754;2024-03-08T03:21:57;15.63;;;11.37;;
37909;SDS011;23741;49.446;8.754;2024-03-08T03:23:59;14.52;;;8.60;;
37909;SDS011;23741;49.446;8.754;2024-03-08T03:26:00;19.52;;;12.50;;
37909;SDS011;23741;49.446;8.754;2024-03-08T03:28:03;17.88;;;12.05;;
37909;SDS011;23741;49.446;8.754;2024-03-08T03:30:06;18.05;;;11.70;;
37909;SDS011;23741;49.446;8.754;2024-03-08T03:32:23;20.15;;;12.45;;
37909;SDS011;23741;49.446;8.754;2024-03-08T03:34:25;16.25;;;12.30;;
37909;SDS011;23741;49.446;8.754;2024-03-08T03:36:27;18.05;;;12.25;;
37909;SDS011;23741;49.446;8.754;2024-03-08T03:38:32;17.88;;;12.02;;
37909;SDS011;23741;49.446;8.754;2024-03-08T03:40:36;19.13;;;12.05;;
37909;SDS011;23741;49.446;8.754;2024-03-08T03:42:38;20.63;;;13.10;;
37909;SDS011;23741;49.446;8.754;2024-03-08T03:44:41;17.95;;;11.80;;
37909;SDS011;23741;49.446;8.754;2024-03-08T03:46:44;20.17;;;12.95;;
37909;SDS011;23741;49.446;8.754;2024-03-08T03:48:46;16.38;;;11.45;;
37909;SDS011;23741;49.446;8.754;2024-03-08T03:50:48;21.63;;;13.15;;
37909;SDS011;23741;49.446;8.754;2024-03-08T03:52:54;17.30;;;12.02;;
37909;SDS011;23741;49.446;8.754;2024-03-08T03:54:56;14.93;;;10.25;;
37909;SDS011;23741;49.446;8.754;2024-03-08T03:56:58;18.70;;;12.02;;
37909;SDS011;23741;49.446;8.754;2024-03-08T03:59:01;20.02;;;12.18;;
37909;SDS011;23741;49.446;8.754;2024-03-08T04:01:06;17.08;;;12.02;;
37909;SDS011;23741;49.446;8.754;2024-03-08T04:03:09;18.85;;;13.23;;
37909;SDS011;23741;49.446;8.754;2024-03-08T04:05:11;20.35;;;13.43;;
37909;SDS011;23741;49.446;8.754;2024-03-08T04:07:13;18.03;;;12.97;;
37909;SDS011;23741;49.446;8.754;2024-03-08T04:09:15;18.45;;;12.73;;
37909;SDS011;23741;49.446;8.754;2024-03-08T04:11:16;18.27;;;13.13;;
37909;SDS011;23741;49.446;8.754;2024-03-08T04:13:18;13.30;;;10.10;;
37909;SDS011;23741;49.446;8.754;2024-03-08T04:15:21;18.00;;;12.60;;
37909;SDS011;23741;49.446;8.754;2024-03-08T04:17:24;19.30;;;13.00;;
37909;SDS011;23741;49.446;8.754;2024-03-08T04:19:26;18.67;;;13.30;;
37909;SDS011;23741;49.446;8.754;2024-03-08T04:21:32;16.75;;;11.73;;
37909;SDS011;23741;49.446;8.754;2024-03-08T04:23:34;20.23;;;13.45;;
37909;SDS011;23741;49.446;8.754;2024-03-08T04:25:37;18.73;;;13.32;;
37909;SDS011;23741;49.446;8.754;2024-03-08T04:27:39;19.63;;;13.47;;
37909;SDS011;23741;49.446;8.754;2024-03-08T04:29:42;18.23;;;12.50;;
37909;SDS011;23741;49.446;8.754;2024-03-08T04:31:44;19.77;;;13.35;;
37909;SDS011;23741;49.446;8.754;2024-03-08T04:33:46;16.05;;;12.63;;
37909;SDS011;23741;49.446;8.754;2024-03-08T04:35:48;20.77;;;13.75;;
37909;SDS011;23741;49.446;8.754;2024-03-08T04:37:50;18.80;;;13.18;;
37909;SDS011;23741;49.446;8.754;2024-03-08T04:39:52;18.23;;;12.50;;
37909;SDS011;23741;49.446;8.754;2024-03-08T04:41:54;17.40;;;12.33;;
37909;SDS011;23741;49.446;8.754;2024-03-08T04:43:59;22.70;;;12.10;;
37909;SDS011;23741;49.446;8.754;2024-03-08T04:46:01;14.63;;;9.93;;
37909;SDS011;23741;49.446;8.754;2024-03-08T04:48:05;18.75;;;12.68;;
37909;SDS011;23741;49.446;8.754;2024-03-08T04:50:07;19.95;;;12.88;;
37909;SDS011;23741;49.446;8.754;2024-03-08T04:52:12;18.50;;;12.15;;
37909;SDS011;23741;49.446;8.754;2024-03-08T04:54:14;19.13;;;13.63;;
37909;SDS011;23741;49.446;8.754;2024-03-08T04:56:16;19.60;;;14.10;;
37909;SDS011;23741;49.446;8.754;2024-03-08T04:58:20;20.08;;;12.93;;
37909;SDS011;23741;49.446;8.754;2024-03-08T05:00:23;19.45;;;13.65;;
37909;SDS011;23741;49.446;8.754;2024-03-08T05:02:24;18.15;;;13.35;;
37909;SDS011;23741;49.446;8.754;2024-03-08T05:04:27;14.88;;;9.88;;
37909;SDS011;23741;49.446;8.754;2024-03-08T05:06:30;19.48;;;13.38;;
37909;SDS011;23741;49.446;8.754;2024-03-08T05:08:32;20.55;;;13.13;;
37909;SDS011;23741;49.446;8.754;2024-03-08T05:10:34;20.45;;;14.00;;
37909;SDS011;23741;49.446;8.754;2024-03-08T05:12:36;23.13;;;14.52;;
37909;SDS011;23741;49.446;8.754;2024-03-08T05:14:40;19.65;;;13.32;;
37909;SDS011;23741;49.446;8.754;2024-03-08T05:16:45;22.25;;;14.68;;
37909;SDS011;23741;49.446;8.754;2024-03-08T05:18:50;18.50;;;13.55;;
37909;SDS011;23741;49.446;8.754;2024-03-08T05:20:52;21.70;;;13.95;;
37909;SDS011;23741;49.446;8.754;2024-03-08T05:22:54;16.05;;;10.40;;
37909;SDS011;23741;49.446;8.754;2024-03-08T05:24:56;21.07;;;12.97;;
37909;SDS011;23741;49.446;8.754;2024-03-08T05:26:58;19.13;;;13.98;;
37909;SDS011;23741;49.446;8.754;2024-03-08T05:29:01;21.83;;;13.95;;
37909;SDS011;23741;49.446;8.754;2024-03-08T05:31:04;19.67;;;13.98;;
37909;SDS011;23741;49.446;8.754;2024-03-08T05:33:06;20.57;;;14.20;;
37909;SDS011;23741;49.446;8.754;2024-03-08T05:35:11;19.58;;;13.60;;
37909;SDS011;23741;49.446;8.754;2024-03-08T05:37:13;20.73;;;13.27;;
37909;SDS011;23741;49.446;8.754;2024-03-08T05:39:16;21.63;;;13.23;;
37909;SDS011;23741;49.446;8.754;2024-03-08T05:41:18;25.45;;;14.27;;
37909;SDS011;23741;49.446;8.754;2024-03-08T05:43:21;19.98;;;13.70;;
37909;SDS011;23741;49.446;8.754;2024-03-08T05:45:23;20.35;;;13.98;;
37909;SDS011;23741;49.446;8.754;2024-03-08T05:47:26;20.98;;;14.57;;
37909;SDS011;23741;49.446;8.754;2024-03-08T05:49:31;19.98;;;13.82;;
37909;SDS011;23741;49.446;8.754;2024-03-08T05:51:34;18.77;;;13.43;;
37909;SDS011;23741;49.446;8.754;2024-03-08T05:53:36;22.75;;;15.77;;
37909;SDS011;23741;49.446;8.754;2024-03-08T05:55:38;21.40;;;13.57;;
37909;SDS011;23741;49.446;8.754;2024-03-08T05:57:41;20.92;;;14.00;;
37909;SDS011;23741;49.446;8.754;2024-03-08T05:59:43;21.10;;;14.55;;
37909;SDS011;23741;49.446;8.754;2024-03-08T06:01:45;19.58;;;13.73;;
37909;SDS011;23741;49.446;8.754;2024-03-08T06:03:48;18.80;;;13.85;;
37909;SDS011;23741;49.446;8.754;2024-03-08T06:05:50;19.88;;;13.82;;
37909;SDS011;23741;49.446;8.754;2024-03-08T06:07:52;22.80;;;14.27;;
37909;SDS011;23741;49.446;8.754;2024-03-08T06:09:54;26.17;;;15.18;;
37909;SDS011;23741;49.446;8.754;2024-03-08T06:11:56;17.93;;;12.63;;
37909;SDS011;23741;49.446;8.754;2024-03-08T06:13:58;14.77;;;10.63;;
37909;SDS011;23741;49.446;8.754;2024-03-08T06:16:03;22.58;;;15.25;;
37909;SDS011;23741;49.446;8.754;2024-03-08T06:18:05;19.15;;;13.88;;
37909;SDS011;23741;49.446;8.754;2024-03-08T06:20:08;21.42;;;13.63;;
37909;SDS011;23741;49.446;8.754;2024-03-08T06:22:15;22.75;;;14.65;;
37909;SDS011;23741;49.446;8.754;2024-03-08T06:24:16;24.07;;;14.87;;
37909;SDS011;23741;49.446;8.754;2024-03-08T06:26:19;20.83;;;15.60;;
37909;SDS011;23741;49.446;8.754;2024-03-08T06:28:21;20.42;;;14.35;;
37909;SDS011;23741;49.446;8.754;2024-03-08T06:30:23;26.37;;;14.60;;
37909;SDS011;23741;49.446;8.754;2024-03-08T06:32:25;21.67;;;16.25;;
37909;SDS011;23741;49.446;8.754;2024-03-08T06:34:27;23.33;;;15.67;;
37909;SDS011;23741;49.446;8.754;2024-03-08T06:36:29;21.15;;;14.02;;
37909;SDS011;23741;49.446;8.754;2024-03-08T06:38:30;22.45;;;14.38;;
37909;SDS011;23741;49.446;8.754;2024-03-08T06:40:32;20.48;;;13.63;;
37909;SDS011;23741;49.446;8.754;2024-03-08T06:42:34;20.17;;;14.23;;
37909;SDS011;23741;49.446;8.754;2024-03-08T06:44:36;16.95;;;10.68;;
37909;SDS011;23741;49.446;8.754;2024-03-08T06:46:39;20.92;;;14.02;;
37909;SDS011;23741;49.446;8.754;2024-03-08T06:48:41;22.67;;;14.33;;
37909;SDS011;23741;49.446;8.754;2024-03-08T06:50:44;20.67;;;13.77;;
37909;SDS011;23741;49.446;8.754;2024-03-08T06:52:46;22.85;;;14.88;;
37909;SDS011;23741;49.446;8.754;2024-03-08T06:54:52;22.00;;;14.25;;
37909;SDS011;23741;49.446;8.754;2024-03-08T06:56:54;20.33;;;14.85;;
37909;SDS011;23741;49.446;8.754;2024-03-08T06:58:56;19.90;;;13.82;;
37909;SDS011;23741;49.446;8.754;2024-03-08T07:00:57;23.98;;;16.42;;
37909;SDS011;23741;49.446;8.754;2024-03-08T07:03:02;23.85;;;14.90;;
37909;SDS011;23741;49.446;8.754;2024-03-08T07:05:04;20.88;;;14.85;;
37909;SDS011;23741;49.446;8.754;2024-03-08T07:07:07;24.77;;;14.45;;
37909;SDS011;23741;49.446;8.754;2024-03-08T07:09:10;21.75;;;14.77;;
37909;SDS011;23741;49.446;8.754;2024-03-08T07:11:13;21.10;;;13.90;;
37909;SDS011;23741;49.446;8.754;2024-03-08T07:13:19;20.23;;;13.95;;
37909;SDS011;23741;49.446;8.754;2024-03-08T07:15:21;20.58;;;14.05;;
37909;SDS011;23741;49.446;8.754;2024-03-08T07:17:24;20.38;;;13.85;;
37909;SDS011;23741;49.446;8.754;2024-03-08T07:19:27;20.52;;;14.10;;
37909;SDS011;23741;49.446;8.754;2024-03-08T07:21:28;19.40;;;14.50;;
37909;SDS011;23741;49.446;8.754;2024-03-08T07:23:31;20.25;;;13.77;;
37909;SDS011;23741;49.446;8.754;2024-03-08T07:25:54;20.08;;;13.55;;
37909;SDS011;23741;49.446;8.754;2024-03-08T07:27:57;21.92;;;13.77;;
37909;SDS011;23741;49.446;8.754;2024-03-08T07:29:59;20.17;;;14.13;;
37909;SDS011;23741;49.446;8.754;2024-03-08T07:32:04;22.63;;;15.13;;
37909;SDS011;23741;49.446;8.754;2024-03-08T07:34:20;19.95;;;13.32;;
37909;SDS011;23741;49.446;8.754;2024-03-08T07:36:22;19.83;;;13.73;;
37909;SDS011;23741;49.446;8.754;2024-03-08T07:38:24;21.43;;;13.90;;
37909;SDS011;23741;49.446;8.754;2024-03-08T07:40:26;19.80;;;14.05;;
37909;SDS011;23741;49.446;8.754;2024-03-08T07:42:28;19.02;;;13.88;;
37909;SDS011;23741;49.446;8.754;2024-03-08T07:44:30;21.50;;;14.90;;
37909;SDS011;23741;49.446;8.754;2024-03-08T07:46:33;18.83;;;14.18;;
37909;SDS011;23741;49.446;8.754;2024-03-08T07:48:35;22.45;;;14.80;;
37909;SDS011;23741;49.446;8.754;2024-03-08T07:50:41;19.50;;;13.80;;
37909;SDS011;23741;49.446;8.754;2024-03-08T07:52:43;21.13;;;13.98;;
37909;SDS011;23741;49.446;8.754;2024-03-08T07:54:45;19.67;;;13.50;;
37909;SDS011;23741;49.446;8.754;2024-03-08T07:56:47;23.20;;;13.23;;
37909;SDS011;23741;49.446;8.754;2024-03-08T07:58:49;23.90;;;14.43;;
37909;SDS011;23741;49.446;8.754;2024-03-08T08:00:51;19.45;;;12.95;;
37909;SDS011;23741;49.446;8.754;2024-03-08T08:02:53;20.37;;;13.23;;
37909;SDS011;23741;49.446;8.754;2024-03-08T08:04:55;21.33;;;13.82;;
37909;SDS011;23741;49.446;8.754;2024-03-08T08:07:00;19.40;;;13.73;;
37909;SDS011;23741;49.446;8.754;2024-03-08T08:09:02;19.73;;;13.15;;
37909;SDS011;23741;49.446;8.754;2024-03-08T08:11:05;19.30;;;13.65;;
37909;SDS011;23741;49.446;8.754;2024-03-08T08:13:10;21.85;;;12.98;;
37909;SDS011;23741;49.446;8.754;2024-03-08T08:15:12;20.33;;;14.25;;
37909;SDS011;23741;49.446;8.754;2024-03-08T08:17:16;20.23;;;14.35;;
37909;SDS011;23741;49.446;8.754;2024-03-08T08:19:18;20.42;;;14.02;;
37909;SDS011;23741;49.446;8.754;2024-03-08T08:21:20;20.15;;;13.13;;
37909;SDS011;23741;49.446;8.754;2024-03-08T08:23:23;19.02;;;13.32;;
37909;SDS011;23741;49.446;8.754;2024-03-08T08:25:25;16.90;;;12.82;;
37909;SDS011;23741;49.446;8.754;2024-03-08T08:27:27;20.85;;;13.85;;
37909;SDS011;23741;49.446;8.754;2024-03-08T08:29:29;18.77;;;13.30;;
37909;SDS011;23741;49.446;8.754;2024-03-08T08:31:34;18.60;;;13.27;;
37909;SDS011;23741;49.446;8.754;2024-03-08T08:33:36;20.08;;;13.52;;
37909;SDS011;23741;49.446;8.754;2024-03-08T08:35:38;22.30;;;13.85;;
37909;SDS011;23741;49.446;8.754;2024-03-08T08:37:40;20.80;;;13.20;;
37909;SDS011;23741;49.446;8.754;2024-03-08T08:39:42;17.10;;;12.95;;
37909;SDS011;23741;49.446;8.754;2024-03-08T08:41:44;20.20;;;13.95;;
37909;SDS011;23741;49.446;8.754;2024-03-08T08:43:46;20.45;;;14.38;;
37909;SDS011;23741;49.446;8.754;2024-03-08T08:46:03;20.45;;;13.68;;
37909;SDS011;23741;49.446;8.754;2024-03-08T08:48:06;19.70;;;13.05;;
37909;SDS011;23741;49.446;8.754;2024-03-08T08:50:08;17.70;;;13.68;;
37909;SDS011;23741;49.446;8.754;2024-03-08T08:52:13;18.40;;;13.07;;
37909;SDS011;23741;49.446;8.754;2024-03-08T08:54:18;17.73;;;12.55;;
37909;SDS011;23741;49.446;8.754;2024-03-08T08:56:20;19.80;;;13.52;;
37909;SDS011;23741;49.446;8.754;2024-03-08T08:58:23;18.55;;;12.95;;
37909;SDS011;23741;49.446;8.754;2024-03-08T09:00:25;21.75;;;13.68;;
37909;SDS011;23741;49.446;8.754;2024-03-08T09:02:29;18.15;;;13.25;;
37909;SDS011;23741;49.446;8.754;2024-03-08T09:04:32;20.38;;;14.45;;
37909;SDS011;23741;49.446;8.754;2024-03-08T09:06:34;19.67;;;15.27;;
37909;SDS011;23741;49.446;8.754;2024-03-08T09:08:37;18.75;;;13.90;;
37909;SDS011;23741;49.446;8.754;2024-03-08T09:10:39;17.75;;;13.15;;
37909;SDS011;23741;49.446;8.754;2024-03-08T09:12:41;15.27;;;10.63;;
37909;SDS011;23741;49.446;8.754;2024-03-08T09:14:44;17.02;;;11.95;;
37909;SDS011;23741;49.446;8.754;2024-03-08T09:16:46;19.27;;;12.75;;
37909;SDS011;23741;49.446;8.754;2024-03-08T09:20:50;20.50;;;12.68;;
37909;SDS011;23741;49.446;8.754;2024-03-08T09:22:52;19.08;;;12.95;;
37909;SDS011;23741;49.446;8.754;2024-03-08T09:24:57;17.50;;;11.88;;
37909;SDS011;23741;49.446;8.754;2024-03-08T09:27:00;19.13;;;12.73;;
37909;SDS011;23741;49.446;8.754;2024-03-08T09:29:02;19.27;;;12.90;;
37909;SDS011;23741;49.446;8.754;2024-03-08T09:31:04;19.60;;;12.90;;
37909;SDS011;23741;49.446;8.754;2024-03-08T09:33:06;23.27;;;14.00;;
37909;SDS011;23741;49.446;8.754;2024-03-08T09:35:09;17.67;;;12.93;;
37909;SDS011;23741;49.446;8.754;2024-03-08T09:37:12;18.30;;;13.30;;
37909;SDS011;23741;49.446;8.754;2024-03-08T09:39:14;25.48;;;14.52;;
37909;SDS011;23741;49.446;8.754;2024-03-08T09:41:21;18.95;;;12.57;;
37909;SDS011;23741;49.446;8.754;2024-03-08T09:43:23;20.35;;;13.00;;
37909;SDS011;23741;49.446;8.754;2024-03-08T09:45:25;19.00;;;12.55;;
37909;SDS011;23741;49.446;8.754;2024-03-08T09:47:28;18.13;;;12.43;;
37909;SDS011;23741;49.446;8.754;2024-03-08T09:49:35;19.35;;;12.77;;
37909;SDS011;23741;49.446;8.754;2024-03-08T09:51:39;19.45;;;13.32;;
37909;SDS011;23741;49.446;8.754;2024-03-08T09:53:42;20.85;;;13.48;;
37909;SDS011;23741;49.446;8.754;2024-03-08T09:55:44;17.50;;;12.48;;
37909;SDS011;23741;49.446;8.754;2024-03-08T09:57:47;15.82;;;11.90;;
37909;SDS011;23741;49.446;8.754;2024-03-08T10:00:10;18.48;;;12.32;;
37909;SDS011;23741;49.446;8.754;2024-03-08T10:02:24;15.10;;;11.63;;
37909;SDS011;23741;49.446;8.754;2024-03-08T10:04:26;18.20;;;12.00;;
37909;SDS011;23741;49.446;8.754;2024-03-08T10:06:32;16.05;;;11.60;;
37909;SDS011;23741;49.446;8.754;2024-03-08T10:08:34;18.70;;;12.40;;
37909;SDS011;23741;49.446;8.754;2024-03-08T10:10:38;17.80;;;11.60;;
37909;SDS011;23741;49.446;8.754;2024-03-08T10:12:40;17.27;;;11.95;;
37909;SDS011;23741;49.446;8.754;2024-03-08T10:14:42;16.45;;;12.30;;
37909;SDS011;23741;49.446;8.754;2024-03-08T10:18:48;17.52;;;11.73;;
37909;SDS011;23741;49.446;8.754;2024-03-08T10:21:03;20.60;;;13.05;;
37909;SDS011;23741;49.446;8.754;2024-03-08T10:23:06;16.92;;;11.25;;
37909;SDS011;23741;49.446;8.754;2024-03-08T10:25:12;18.13;;;11.95;;
37909;SDS011;23741;49.446;8.754;2024-03-08T10:27:16;16.48;;;12.10;;
37909;SDS011;23741;49.446;8.754;2024-03-08T10:29:19;17.77;;;12.55;;
37909;SDS011;23741;49.446;8.754;2024-03-08T10:31:21;21.45;;;12.63;;
37909;SDS011;23741;49.446;8.754;2024-03-08T10:33:23;18.52;;;12.52;;
37909;SDS011;23741;49.446;8.754;2024-03-08T10:35:27;16.75;;;11.45;;
37909;SDS011;23741;49.446;8.754;2024-03-08T10:37:29;18.65;;;12.80;;
37909;SDS011;23741;49.446;8.754;2024-03-08T10:39:34;16.63;;;12.05;;
37909;SDS011;23741;49.446;8.754;2024-03-08T10:41:37;18.08;;;11.75;;
37909;SDS011;23741;49.446;8.754;2024-03-08T10:46:01;16.85;;;12.38;;
37909;SDS011;23741;49.446;8.754;2024-03-08T10:50:38;18.73;;;12.50;;
37909;SDS011;23741;49.446;8.754;2024-03-08T10:52:41;15.98;;;11.68;;
37909;SDS011;23741;49.446;8.754;2024-03-08T10:54:44;17.38;;;12.35;;
37909;SDS011;23741;49.446;8.754;2024-03-08T10:56:47;15.05;;;10.82;;
37909;SDS011;23741;49.446;8.754;2024-03-08T10:58:51;15.70;;;11.48;;
37909;SDS011;23741;49.446;8.754;2024-03-08T11:00:54;16.17;;;11.02;;
37909;SDS011;23741;49.446;8.754;2024-03-08T11:02:57;17.33;;;11.45;;
37909;SDS011;23741;49.446;8.754;2024-03-08T11:04:59;15.18;;;11.70;;
37909;SDS011;23741;49.446;8.754;2024-03-08T11:07:05;15.73;;;11.60;;
37909;SDS011;23741;49.446;8.754;2024-03-08T11:09:11;14.82;;;10.88;;
37909;SDS011;23741;49.446;8.754;2024-03-08T11:11:32;15.90;;;10.98;;
37909;SDS011;23741;49.446;8.754;2024-03-08T11:13:38;15.65;;;10.55;;
37909;SDS011;23741;49.446;8.754;2024-03-08T11:15:47;15.00;;;10.35;;
37909;SDS011;23741;49.446;8.754;2024-03-08T11:17:50;15.32;;;11.57;;
37909;SDS011;23741;49.446;8.754;2024-03-08T11:19:52;14.82;;;11.18;;
37909;SDS011;23741;49.446;8.754;2024-03-08T11:21:58;16.38;;;11.43;;
37909;SDS011;23741;49.446;8.754;2024-03-08T11:26:03;14.83;;;11.03;;
37909;SDS011;23741;49.446;8.754;2024-03-08T11:30:21;15.13;;;10.98;;
37909;SDS011;23741;49.446;8.754;2024-03-08T11:32:27;14.85;;;10.77;;
37909;SDS011;23741;49.446;8.754;2024-03-08T11:34:33;18.90;;;13.30;;
37909;SDS011;23741;49.446;8.754;2024-03-08T11:36:35;15.23;;;11.52;;
37909;SDS011;23741;49.446;8.754;2024-03-08T11:40:48;14.73;;;9.85;;
37909;SDS011;23741;49.446;8.754;2024-03-08T11:42:51;15.82;;;11.65;;
37909;SDS011;23741;49.446;8.754;2024-03-08T11:44:54;15.27;;;11.25;;
37909;SDS011;23741;49.446;8.754;2024-03-08T11:46:56;13.43;;;10.38;;
37909;SDS011;23741;49.446;8.754;2024-03-08T11:48:59;16.77;;;10.82;;
37909;SDS011;23741;49.446;8.754;2024-03-08T11:51:01;16.08;;;11.38;;
37909;SDS011;23741;49.446;8.754;2024-03-08T11:53:04;13.38;;;10.65;;
37909;SDS011;23741;49.446;8.754;2024-03-08T11:55:07;16.02;;;11.45;;
37909;SDS011;23741;49.446;8.754;2024-03-08T11:59:11;12.75;;;10.18;;
37909;SDS011;23741;49.446;8.754;2024-03-08T12:01:17;16.92;;;10.60;;
37909;SDS011;23741;49.446;8.754;2024-03-08T12:03:19;13.60;;;10.37;;
37909;SDS011;23741;49.446;8.754;2024-03-08T12:05:21;14.80;;;11.40;;
37909;SDS011;23741;49.446;8.754;2024-03-08T12:07:23;15.50;;;11.35;;
37909;SDS011;23741;49.446;8.754;2024-03-08T12:09:26;14.02;;;9.98;;
37909;SDS011;23741;49.446;8.754;2024-03-08T12:11:28;13.63;;;10.07;;
37909;SDS011;23741;49.446;8.754;2024-03-08T12:13:34;15.35;;;11.13;;
37909;SDS011;23741;49.446;8.754;2024-03-08T12:15:37;16.77;;;10.95;;
37909;SDS011;23741;49.446;8.754;2024-03-08T12:17:39;18.40;;;11.57;;
37909;SDS011;23741;49.446;8.754;2024-03-08T12:21:47;14.80;;;10.60;;
37909;SDS011;23741;49.446;8.754;2024-03-08T12:26:13;14.05;;;11.02;;